createdAt,value
2022-08-09T00:01:54.740Z,27.25
2022-08-09T00:04:33.904Z,27.21
2022-08-09T00:07:02.641Z,27.17
2022-08-09T00:09:29.614Z,27.16
2022-08-09T00:12:03.536Z,27.13
2022-08-09T00:14:38.352Z,27.10
2022-08-09T00:17:07.084Z,27.08
2022-08-09T00:19:34.730Z,27.05
2022-08-09T00:22:03.430Z,27.02
2022-08-09T00:24:32.222Z,27.01
2022-08-09T00:27:00.131Z,26.98
2022-08-09T00:29:39.463Z,26.98
2022-08-09T00:32:27.079Z,26.98
2022-08-09T00:34:55.857Z,26.98
2022-08-09T00:37:23.994Z,26.99
2022-08-09T00:40:08.916Z,26.99
2022-08-09T00:44:16.261Z,26.99
2022-08-09T00:45:25.064Z,26.99
2022-08-09T00:47:53.123Z,26.99
2022-08-09T00:50:23.159Z,27.00
2022-08-09T00:52:50.418Z,27.00
2022-08-09T00:56:04.120Z,27.00
2022-08-09T00:58:05.924Z,27.01
2022-08-09T01:00:38.784Z,27.02
2022-08-09T01:03:15.662Z,27.03
2022-08-09T01:06:17.695Z,27.03
2022-08-09T01:08:56.288Z,27.01
2022-08-09T01:11:30.969Z,26.99
2022-08-09T01:14:17.471Z,26.98
2022-08-09T01:16:47.420Z,26.95
2022-08-09T01:19:51.724Z,26.96
2022-08-09T01:22:34.268Z,26.99
2022-08-09T01:25:26.870Z,26.98
2022-08-09T01:27:57.815Z,26.97
2022-08-09T01:30:28.730Z,26.97
2022-08-09T01:33:02.656Z,26.97
2022-08-09T01:35:54.282Z,26.98
2022-08-09T01:38:24.913Z,26.98
2022-08-09T01:41:31.853Z,26.99
2022-08-09T01:44:02.966Z,27.02
2022-08-09T01:46:31.747Z,27.03
2022-08-09T01:49:10.177Z,27.02
2022-08-09T01:51:44.353Z,27.01
2022-08-09T01:54:11.852Z,26.99
2022-08-09T01:56:40.201Z,26.97
2022-08-09T01:59:09.942Z,26.97
2022-08-09T02:01:59.942Z,26.96
2022-08-09T02:04:24.690Z,26.95
2022-08-09T02:07:17.922Z,26.93
2022-08-09T02:10:03.961Z,26.88
2022-08-09T02:12:32.533Z,26.83
2022-08-09T02:14:59.680Z,26.81
2022-08-09T02:18:00.271Z,26.80
2022-08-09T02:20:15.915Z,26.77
2022-08-09T02:22:55.434Z,26.77
2022-08-09T02:25:25.102Z,26.76
2022-08-09T02:28:03.605Z,26.74
2022-08-09T02:30:34.098Z,26.73
2022-08-09T02:33:01.134Z,26.71
2022-08-09T02:36:01.533Z,26.68
2022-08-09T02:38:27.991Z,26.66
2022-08-09T02:41:06.615Z,26.64
2022-08-09T02:43:47.698Z,26.62
2022-08-09T02:46:21.499Z,26.61
2022-08-09T02:48:48.341Z,26.59
2022-08-09T02:51:18.666Z,26.56
2022-08-09T02:53:59.506Z,26.55
2022-08-09T02:56:28.939Z,26.54
2022-08-09T02:58:56.193Z,26.53
2022-08-09T03:01:29.325Z,26.52
2022-08-09T03:04:16.948Z,26.49
2022-08-09T03:06:48.802Z,26.46
2022-08-09T03:09:17.369Z,26.44
2022-08-09T03:12:06.031Z,26.41
2022-08-09T03:14:32.276Z,26.40
2022-08-09T03:17:01.794Z,26.40
2022-08-09T03:19:58.932Z,26.39
2022-08-09T03:22:25.689Z,26.39
2022-08-09T03:25:06.265Z,26.39
2022-08-09T03:27:49.425Z,26.45
2022-08-09T03:30:30.184Z,26.45
2022-08-09T03:33:15.314Z,26.33
2022-08-09T03:36:15.744Z,26.36
2022-08-09T03:38:42.637Z,26.43
2022-08-09T03:41:15.891Z,26.39
2022-08-09T03:44:03.384Z,26.34
2022-08-09T03:46:33.999Z,26.27
2022-08-09T03:49:04.135Z,26.28
2022-08-09T03:51:55.509Z,26.28
2022-08-09T03:54:29.372Z,26.26
2022-08-09T03:56:58.340Z,26.27
2022-08-09T03:59:27.427Z,26.27
2022-08-09T04:02:10.538Z,26.30
2022-08-09T04:04:38.985Z,26.30
2022-08-09T04:07:06.068Z,26.31
2022-08-09T04:09:47.971Z,26.32
2022-08-09T04:12:32.620Z,26.34
2022-08-09T04:15:11.718Z,26.38
2022-08-09T04:17:48.060Z,26.44
2022-08-09T04:20:16.171Z,26.50
2022-08-09T04:22:44.241Z,26.58
2022-08-09T04:25:12.039Z,26.65
2022-08-09T04:27:49.095Z,26.73
2022-08-09T04:30:20.694Z,26.83
2022-08-09T04:32:50.965Z,26.95
2022-08-09T04:35:18.465Z,27.16
2022-08-09T04:37:49.925Z,27.37
2022-08-09T04:40:28.867Z,27.57
2022-08-09T04:43:05.571Z,27.79
2022-08-09T04:45:42.969Z,27.90
2022-08-09T04:48:19.998Z,27.96
2022-08-09T04:50:46.851Z,28.00
2022-08-09T04:53:17.581Z,28.02
2022-08-09T04:55:58.916Z,28.06
2022-08-09T04:58:27.865Z,28.13
2022-08-09T05:00:56.246Z,28.18
2022-08-09T05:03:40.637Z,28.25
2022-08-09T05:06:21.822Z,28.33
2022-08-09T05:08:59.861Z,28.37
2022-08-09T05:11:30.565Z,28.39
2022-08-09T05:13:59.931Z,28.38
2022-08-09T05:16:31.467Z,28.41
2022-08-09T05:19:00.219Z,28.47
2022-08-09T05:21:30.362Z,28.56
2022-08-09T05:24:04.651Z,28.65
2022-08-09T05:26:37.234Z,28.72
2022-08-09T05:29:21.161Z,28.88
2022-08-09T05:31:56.061Z,28.97
2022-08-09T05:34:30.044Z,29.13
2022-08-09T05:37:06.841Z,29.12
2022-08-09T05:39:42.559Z,29.19
2022-08-09T05:42:20.647Z,29.28
2022-08-09T05:45:00.542Z,29.42
2022-08-09T05:47:30.378Z,29.58
2022-08-09T05:50:25.157Z,29.62
2022-08-09T05:52:53.868Z,29.59
2022-08-09T05:55:23.933Z,29.74
2022-08-09T05:57:56.942Z,29.86
2022-08-09T06:00:29.396Z,29.92
2022-08-09T06:03:01.148Z,30.09
2022-08-09T06:05:31.295Z,30.23
2022-08-09T06:08:19.763Z,30.36
2022-08-09T06:10:53.662Z,30.41
2022-08-09T06:13:21.180Z,30.53
2022-08-09T06:15:52.338Z,30.66
2022-08-09T06:18:24.020Z,30.74
2022-08-09T06:20:55.670Z,30.88
2022-08-09T06:23:57.302Z,30.96
2022-08-09T06:26:12.501Z,31.10
2022-08-09T06:28:39.549Z,31.18
2022-08-09T06:31:10.827Z,31.22
2022-08-09T06:33:41.715Z,31.23
2022-08-09T06:36:11.902Z,31.36
2022-08-09T06:38:47.275Z,31.53
2022-08-09T06:41:19.188Z,31.66
2022-08-09T06:43:47.803Z,31.79
2022-08-09T06:46:39.722Z,31.93
2022-08-09T06:49:02.928Z,32.02
2022-08-09T06:51:31.636Z,32.11
2022-08-09T06:54:00.955Z,32.24
2022-08-09T06:56:30.673Z,32.34
2022-08-09T07:00:54.930Z,32.45
2022-08-09T07:01:54.431Z,32.67
2022-08-09T07:04:27.139Z,32.85
2022-08-09T07:06:59.927Z,32.99
2022-08-09T07:09:56.123Z,33.17
2022-08-09T07:12:17.838Z,33.34
2022-08-09T07:14:50.749Z,33.45
2022-08-09T07:17:21.632Z,33.60
2022-08-09T07:19:51.001Z,33.69
2022-08-09T07:22:34.998Z,33.76
2022-08-09T07:25:09.678Z,33.82
2022-08-09T07:27:42.373Z,33.85
2022-08-09T07:30:13.553Z,33.94
2022-08-09T07:32:41.269Z,34.11
2022-08-09T07:35:11.960Z,34.28
2022-08-09T07:37:45.755Z,34.33
2022-08-09T07:40:17.310Z,34.32
2022-08-09T07:43:16.768Z,34.40
2022-08-09T07:45:44.900Z,34.46
2022-08-09T07:48:28.563Z,34.45
2022-08-09T07:51:10.172Z,34.34
2022-08-09T07:54:05.240Z,34.14
2022-08-09T07:56:34.405Z,33.98
2022-08-09T07:59:06.375Z,33.96
2022-08-09T08:01:42.482Z,33.92
2022-08-09T08:04:10.558Z,33.93
2022-08-09T08:06:45.486Z,34.04
2022-08-09T08:09:41.136Z,34.27
2022-08-09T08:12:28.067Z,34.58
2022-08-09T08:14:57.482Z,35.00
2022-08-09T08:17:52.313Z,35.38
2022-08-09T08:20:14.842Z,35.68
2022-08-09T08:22:41.978Z,35.95
2022-08-09T08:25:13.486Z,36.18
2022-08-09T08:27:41.222Z,36.33
2022-08-09T08:30:11.961Z,36.58
2022-08-09T08:32:52.939Z,36.89
2022-08-09T08:35:22.483Z,37.17
2022-08-09T08:38:01.983Z,37.34
2022-08-09T08:40:33.266Z,37.47
2022-08-09T08:43:02.357Z,37.53
2022-08-09T08:45:43.202Z,37.78
2022-08-09T08:48:19.572Z,37.97
2022-08-09T08:50:49.404Z,38.08
2022-08-09T08:53:21.935Z,38.22
2022-08-09T08:55:49.067Z,38.43
2022-08-09T08:58:19.805Z,38.68
2022-08-09T09:00:56.790Z,38.94
2022-08-09T09:03:37.257Z,39.12
2022-08-09T09:06:07.874Z,39.27
2022-08-09T09:08:40.679Z,39.29
2022-08-09T09:11:13.948Z,39.34
2022-08-09T09:13:57.253Z,39.38
2022-08-09T09:16:30.964Z,39.45
2022-08-09T09:22:04.226Z,39.63
2022-08-09T09:24:38.812Z,39.79
2022-08-09T09:27:08.453Z,40.05
2022-08-09T09:30:11.390Z,40.26
2022-08-09T09:32:35.162Z,40.58
2022-08-09T09:35:03.595Z,40.85
2022-08-09T09:37:36.586Z,41.15
2022-08-09T09:40:09.300Z,41.38
2022-08-09T09:42:37.089Z,41.47
2022-08-09T09:45:09.335Z,41.67
2022-08-09T09:47:56.132Z,41.84
2022-08-09T09:50:49.630Z,42.01
2022-08-09T09:53:21.031Z,42.15
2022-08-09T09:55:57.912Z,42.34
2022-08-09T09:58:46.154Z,42.61
2022-08-09T10:01:31.386Z,42.84
2022-08-09T10:04:30.440Z,42.88
2022-08-09T10:06:58.839Z,42.85
2022-08-09T10:09:54.691Z,42.77
2022-08-09T10:12:28.521Z,42.80
2022-08-09T10:15:07.460Z,42.88
2022-08-09T10:17:55.979Z,43.03
2022-08-09T10:20:32.958Z,43.05
2022-08-09T10:23:20.308Z,43.14
2022-08-09T10:26:08.055Z,43.15
2022-08-09T10:28:36.575Z,43.18
2022-08-09T10:32:27.689Z,43.04
2022-08-09T10:34:10.736Z,42.93
2022-08-09T10:36:40.129Z,43.02
2022-08-09T10:39:15.575Z,43.17
2022-08-09T10:41:43.749Z,43.11
2022-08-09T10:44:11.824Z,43.07
2022-08-09T10:47:01.074Z,43.11
2022-08-09T10:49:51.880Z,43.21
2022-08-09T10:53:00.035Z,43.43
2022-08-09T10:55:28.809Z,43.60
2022-08-09T10:58:33.951Z,43.65
2022-08-09T11:03:06.781Z,43.66
2022-08-09T11:04:27.817Z,43.79
2022-08-09T11:06:58.020Z,43.76
2022-08-09T11:09:41.348Z,43.59
2022-08-09T11:12:26.413Z,43.43
2022-08-09T11:15:24.440Z,43.25
2022-08-09T11:18:03.782Z,43.27
2022-08-09T11:20:50.320Z,43.49
2022-08-09T11:23:23.942Z,43.73
2022-08-09T11:25:51.279Z,43.91
2022-08-09T11:28:56.598Z,43.86
2022-08-09T11:31:43.502Z,43.68
2022-08-09T11:34:43.222Z,43.60
2022-08-09T11:37:18.029Z,43.58
2022-08-09T11:40:05.489Z,43.51
2022-08-09T11:42:43.718Z,43.60
2022-08-09T11:45:22.339Z,43.79
2022-08-09T11:48:19.371Z,43.90
2022-08-09T11:52:49.044Z,43.92
2022-08-09T11:54:27.863Z,43.82
2022-08-09T11:57:47.621Z,43.93
2022-08-09T12:00:27.703Z,44.16
2022-08-09T12:02:57.436Z,44.37
2022-08-09T12:05:37.703Z,44.50
2022-08-09T12:08:12.330Z,44.46
2022-08-09T12:10:55.099Z,44.15
2022-08-09T12:14:09.153Z,43.80
2022-08-09T12:16:42.925Z,43.70
2022-08-09T12:19:12.255Z,43.79
2022-08-09T12:21:48.605Z,43.94
2022-08-09T12:24:25.288Z,44.06
2022-08-09T12:29:15.214Z,44.26
2022-08-09T12:30:00.167Z,44.17
2022-08-09T12:32:40.966Z,44.02
2022-08-09T12:35:12.541Z,44.04
2022-08-09T12:37:51.875Z,44.01
2022-08-09T12:40:21.299Z,43.89
2022-08-09T12:42:51.461Z,43.93
2022-08-09T12:45:34.704Z,43.93
2022-08-09T12:48:10.789Z,43.99
2022-08-09T12:50:49.058Z,44.06
2022-08-09T12:53:36.995Z,44.07
2022-08-09T12:56:37.010Z,43.93
2022-08-09T12:59:20.691Z,43.73
2022-08-09T13:02:00.921Z,43.37
2022-08-09T13:04:38.027Z,42.95
2022-08-09T13:07:12.121Z,42.49
2022-08-09T13:09:43.338Z,42.00
2022-08-09T13:12:20.252Z,41.57
2022-08-09T13:14:53.622Z,41.22
2022-08-09T13:17:43.814Z,40.92
2022-08-09T13:20:16.369Z,40.64
2022-08-09T13:23:01.701Z,40.40
2022-08-09T13:25:54.574Z,40.10
2022-08-09T13:28:33.715Z,39.80
2022-08-09T13:32:16.375Z,39.57
2022-08-09T13:33:58.418Z,39.39
2022-08-09T13:36:41.089Z,39.22
2022-08-09T13:41:46.925Z,39.07
2022-08-09T13:42:12.204Z,38.91
2022-08-09T13:44:43.696Z,38.81
2022-08-09T13:47:33.573Z,38.69
2022-08-09T13:50:08.685Z,38.55
2022-08-09T13:52:41.727Z,38.47
2022-08-09T13:55:13.682Z,38.43
2022-08-09T13:57:43.578Z,38.33
2022-08-09T14:00:11.925Z,38.23
2022-08-09T14:02:42.518Z,38.14
2022-08-09T14:05:56.744Z,38.06
2022-08-09T14:08:17.487Z,38.07
2022-08-09T14:10:50.335Z,38.08
2022-08-09T14:13:28.453Z,38.04
2022-08-09T14:16:11.447Z,38.01
2022-08-09T14:18:43.255Z,37.97
2022-08-09T14:21:17.924Z,37.86
2022-08-09T14:23:54.642Z,37.79
2022-08-09T14:26:32.917Z,37.71
2022-08-09T14:29:08.147Z,37.60
2022-08-09T14:31:53.488Z,37.49
2022-08-09T14:34:31.645Z,37.42
2022-08-09T14:37:06.440Z,37.37
2022-08-09T14:39:45.232Z,37.23
2022-08-09T14:42:30.069Z,37.05
2022-08-09T14:46:38.935Z,36.91
2022-08-09T14:47:57.450Z,36.75
2022-08-09T14:50:34.475Z,36.69
2022-08-09T14:53:03.002Z,36.66
2022-08-09T14:55:33.227Z,36.58
2022-08-09T14:58:04.790Z,36.52
2022-08-09T15:00:34.437Z,36.48
2022-08-09T15:03:04.652Z,36.42
2022-08-09T15:05:32.282Z,36.37
2022-08-09T15:07:59.236Z,36.28
2022-08-09T15:10:26.798Z,36.18
2022-08-09T15:12:54.875Z,36.11
2022-08-09T15:15:22.846Z,36.03
2022-08-09T15:17:52.724Z,35.97
2022-08-09T15:21:56.348Z,35.92
2022-08-09T15:24:02.955Z,35.86
2022-08-09T15:25:58.593Z,35.79
2022-08-09T15:28:28.441Z,35.72
2022-08-09T15:31:10.361Z,35.66
2022-08-09T15:34:31.549Z,35.61
2022-08-09T15:36:32.475Z,35.53
2022-08-09T15:39:00.155Z,35.47
2022-08-09T15:41:31.774Z,35.42
2022-08-09T15:44:02.946Z,35.40
2022-08-09T15:46:34.446Z,35.36
2022-08-09T15:49:22.580Z,35.28
2022-08-09T15:52:02.918Z,35.20
2022-08-09T15:54:46.241Z,35.14
2022-08-09T15:57:34.948Z,35.09
2022-08-09T16:00:13.863Z,35.05
2022-08-09T16:02:42.262Z,35.08
2022-08-09T16:05:10.269Z,35.12
2022-08-09T16:07:39.605Z,35.14
2022-08-09T16:10:17.304Z,35.14
2022-08-09T16:13:01.398Z,35.13
2022-08-09T16:16:11.054Z,35.11
2022-08-09T16:18:16.283Z,35.05
2022-08-09T16:20:43.947Z,35.02
2022-08-09T16:23:13.554Z,34.98
2022-08-09T16:25:41.835Z,34.96
2022-08-09T16:28:16.773Z,34.89
2022-08-09T16:30:45.049Z,34.82
2022-08-09T16:33:26.751Z,34.75
2022-08-09T16:35:59.734Z,34.70
2022-08-09T16:38:29.640Z,34.66
2022-08-09T16:40:57.881Z,34.64
2022-08-09T16:43:26.683Z,34.63
2022-08-09T16:45:55.211Z,34.61
2022-08-09T16:48:40.750Z,34.57
2022-08-09T16:51:14.397Z,34.49
2022-08-09T16:54:08.893Z,34.37
2022-08-09T16:56:49.061Z,34.25
2022-08-09T16:59:16.305Z,34.15
2022-08-09T17:01:51.143Z,34.06
2022-08-09T17:04:28.238Z,33.95
2022-08-09T17:08:40.809Z,33.87
2022-08-09T17:09:46.648Z,33.80
2022-08-09T17:12:15.285Z,33.72
2022-08-09T17:14:47.702Z,33.64
2022-08-09T17:17:26.651Z,33.54
2022-08-09T17:20:29.195Z,33.43
2022-08-09T17:22:52.063Z,33.33
2022-08-09T17:25:22.144Z,33.21
2022-08-09T17:27:53.958Z,33.15
2022-08-09T17:30:28.023Z,33.08
2022-08-09T17:32:57.705Z,32.98
2022-08-09T17:35:29.937Z,32.87
2022-08-09T17:38:14.536Z,32.79
2022-08-09T17:40:47.370Z,32.70
2022-08-09T17:43:33.563Z,32.62
2022-08-09T17:46:09.062Z,32.54
2022-08-09T17:48:40.291Z,32.47
2022-08-09T17:51:17.567Z,32.39
2022-08-09T17:53:52.323Z,32.32
2022-08-09T17:56:27.444Z,32.23
2022-08-09T17:58:57.212Z,32.13
2022-08-09T18:01:24.506Z,32.06
2022-08-09T18:03:54.374Z,31.95
2022-08-09T18:06:31.636Z,31.80
2022-08-09T18:09:09.538Z,31.75
2022-08-09T18:11:46.790Z,31.70
2022-08-09T18:14:15.693Z,31.60
2022-08-09T18:16:48.853Z,31.52
2022-08-09T18:20:54.310Z,31.41
2022-08-09T18:22:04.623Z,31.42
2022-08-09T18:24:31.574Z,31.38
2022-08-09T18:27:01.031Z,31.32
2022-08-09T18:30:39.734Z,31.24
2022-08-09T18:32:18.795Z,31.17
2022-08-09T18:34:48.161Z,31.12
2022-08-09T18:37:48.173Z,31.07
2022-08-09T18:40:02.496Z,31.02
2022-08-09T18:42:30.797Z,30.97
2022-08-09T18:45:00.892Z,30.92
2022-08-09T18:47:37.299Z,30.86
2022-08-09T18:50:09.017Z,30.80
2022-08-09T18:52:37.563Z,30.75
2022-08-09T18:55:13.705Z,30.70
2022-08-09T18:57:44.549Z,30.63
2022-08-09T19:00:16.711Z,30.55
2022-08-09T19:02:51.089Z,30.51
2022-08-09T19:05:28.588Z,30.48
2022-08-09T19:08:10.535Z,30.44
2022-08-09T19:10:41.205Z,30.39
2022-08-09T19:13:23.407Z,30.33
2022-08-09T19:15:59.033Z,30.27
2022-08-09T19:18:35.210Z,30.23
2022-08-09T19:21:09.818Z,30.17
2022-08-09T19:24:32.452Z,30.13
2022-08-09T19:26:31.115Z,30.07
2022-08-09T19:29:01.607Z,30.00
2022-08-09T19:31:43.865Z,29.94
2022-08-09T19:34:22.089Z,29.89
2022-08-09T19:36:54.173Z,29.83
2022-08-09T19:39:43.842Z,29.76
2022-08-09T19:42:08.880Z,29.70
2022-08-09T19:44:37.038Z,29.65
2022-08-09T19:47:04.286Z,29.61
2022-08-09T19:50:10.139Z,29.55
2022-08-09T19:52:18.459Z,29.49
2022-08-09T19:54:45.499Z,29.43
2022-08-09T19:57:13.102Z,29.33
2022-08-09T19:59:59.941Z,29.28
2022-08-09T20:04:10.149Z,29.23
2022-08-09T20:05:16.763Z,29.16
2022-08-09T20:07:59.501Z,29.09
2022-08-09T20:10:34.096Z,29.01
2022-08-09T20:13:02.822Z,28.93
2022-08-09T20:16:36.869Z,28.89
2022-08-09T20:18:19.569Z,28.82
2022-08-09T20:20:50.434Z,28.75
2022-08-09T20:23:21.100Z,28.70
2022-08-09T20:25:52.118Z,28.63
2022-08-09T20:28:34.134Z,28.57
2022-08-09T20:31:04.921Z,28.48
2022-08-09T20:33:38.952Z,28.45
2022-08-09T20:36:09.257Z,28.39
2022-08-09T20:39:00.288Z,28.34
2022-08-09T20:41:34.699Z,28.32
2022-08-09T20:44:06.988Z,28.28
2022-08-09T20:46:42.769Z,28.24
2022-08-09T20:49:16.162Z,28.20
2022-08-09T20:51:44.546Z,28.17
2022-08-09T20:54:18.130Z,28.15
2022-08-09T20:56:46.738Z,28.14
2022-08-09T20:59:17.194Z,28.13
2022-08-09T21:01:51.497Z,28.10
2022-08-09T21:05:53.403Z,28.07
2022-08-09T21:07:11.291Z,28.03
2022-08-09T21:09:55.504Z,27.99
2022-08-09T21:15:16.458Z,27.90
2022-08-09T21:18:12.009Z,27.87
2022-08-09T21:20:31.313Z,27.83
2022-08-09T21:23:00.555Z,27.81
2022-08-09T21:25:56.085Z,27.76
2022-08-09T21:28:34.344Z,27.73
2022-08-09T21:31:17.612Z,27.70
2022-08-09T21:33:49.402Z,27.66
2022-08-09T21:36:19.922Z,27.62
2022-08-09T21:38:51.015Z,27.59
2022-08-09T21:42:05.685Z,27.55
2022-08-09T21:44:15.460Z,27.51
2022-08-09T21:47:01.700Z,27.46
2022-08-09T21:49:29.089Z,27.41
2022-08-09T21:52:08.218Z,27.36
2022-08-09T21:54:46.378Z,27.30
2022-08-09T21:57:36.847Z,27.25
2022-08-09T22:00:13.039Z,27.21
2022-08-09T22:02:40.272Z,27.17
2022-08-09T22:05:22.707Z,27.12
2022-08-09T22:07:52.097Z,27.09
2022-08-09T22:10:23.234Z,27.05
2022-08-09T22:12:51.268Z,26.99
2022-08-09T22:15:20.666Z,26.92
2022-08-09T22:17:50.380Z,26.89
2022-08-09T22:20:21.623Z,26.89
2022-08-09T22:22:54.310Z,26.83
2022-08-09T22:26:07.765Z,26.79
2022-08-09T22:28:08.336Z,26.73
2022-08-09T22:30:36.715Z,26.70
2022-08-09T22:33:09.724Z,26.65
2022-08-09T22:36:01.767Z,26.57
2022-08-09T22:38:24.354Z,26.51
2022-08-09T22:40:57.340Z,26.45
2022-08-09T22:44:02.830Z,26.40
2022-08-09T22:48:13.139Z,26.29
2022-08-09T22:49:10.234Z,26.24
2022-08-09T22:51:39.489Z,26.08
2022-08-09T22:54:17.163Z,26.07
2022-08-09T22:56:54.628Z,26.00
2022-08-09T22:59:55.215Z,25.92
2022-08-09T23:02:15.064Z,25.84
2022-08-09T23:04:53.938Z,25.79
2022-08-09T23:08:29.171Z,25.78
2022-08-09T23:10:30.896Z,25.68
2022-08-09T23:12:58.562Z,25.74
2022-08-09T23:15:25.911Z,25.72
2022-08-09T23:17:52.859Z,25.66
2022-08-09T23:20:19.916Z,25.54
2022-08-09T23:22:46.955Z,25.52
2022-08-09T23:25:14.005Z,25.57
2022-08-09T23:27:59.671Z,25.47
2022-08-09T23:30:28.682Z,25.59
2022-08-09T23:32:55.741Z,25.70
2022-08-09T23:35:22.779Z,25.58
2022-08-09T23:37:49.830Z,25.52
2022-08-09T23:40:17.389Z,25.50
2022-08-09T23:42:44.434Z,25.42
2022-08-09T23:45:38.296Z,25.38
2022-08-09T23:47:58.709Z,25.23
2022-08-09T23:50:25.758Z,25.16
2022-08-09T23:52:52.801Z,25.11
2022-08-09T23:55:19.854Z,25.08
2022-08-09T23:57:56.183Z,25.06
